Time;durP1;ratioP1;P1;durP2;ratioP2;P2;SDS_P1;SDS_P2;PMS_P1;PMS_P2;Temp;Humidity;BMP_temperature;BMP_pressure;BME280_temperature;BME280_humidity;BME280_pressure;Samples;Min_cycle;Max_cycle;Signal;HPM_P1;HPM_P2
2022/06/29 00:02:10;;;;;;;4.25;2.33;;;;;;;20.60;63.99;101408.88;5018468;28;20092;-54
2022/06/29 00:04:37;;;;;;;4.88;3.05;;;;;;;20.58;63.98;101413.34;5031657;28;20061;-52
2022/06/29 00:07:06;;;;;;;5.85;2.30;;;;;;;20.57;64.01;101414.25;5032370;28;20053;-54
2022/06/29 00:09:38;;;;;;;8.60;2.80;;;;;;;20.57;64.10;101408.13;5032216;28;20061;-52
2022/06/29 00:12:14;;;;;;;4.57;2.45;;;;;;;20.57;64.22;101416.03;5032460;28;20046;-54
2022/06/29 00:14:45;;;;;;;5.82;2.20;;;;;;;20.56;64.35;101412.53;5035491;28;20053;-52
2022/06/29 00:17:13;;;;;;;3.60;2.20;;;;;;;20.58;64.08;101409.84;5035344;28;20045;-55
2022/06/29 00:19:49;;;;;;;7.07;2.75;;;;;;;20.60;64.12;101418.53;5032975;28;20060;-55
2022/06/29 00:22:19;;;;;;;4.82;2.25;;;;;;;20.60;64.16;101419.41;5035515;28;20053;-55
2022/06/29 00:24:55;;;;;;;5.63;2.90;;;;;;;20.60;64.11;101418.53;5035338;28;20061;-53
2022/06/29 00:27:23;;;;;;;6.30;2.80;;;;;;;20.59;64.10;101417.69;5035668;28;20057;-54
2022/06/29 00:29:51;;;;;;;7.22;2.83;;;;;;;20.58;64.03;101415.97;5035792;28;20057;-54
2022/06/29 00:32:19;;;;;;;5.10;3.13;;;;;;;20.58;64.03;101423.88;5034778;28;20092;-52
2022/06/29 00:34:50;;;;;;;5.97;3.10;;;;;;;20.56;64.06;101420.44;5035252;28;20045;-55
2022/06/29 00:37:19;;;;;;;6.03;3.08;;;;;;;20.55;64.09;101420.50;5034103;28;20363;-52
2022/06/29 00:39:48;;;;;;;4.80;2.67;;;;;;;20.51;64.26;101409.22;5035476;28;20045;-51
2022/06/29 00:42:33;;;;;;;6.05;3.28;;;;;;;20.51;64.19;101409.22;5035696;28;20056;-53
2022/06/29 00:45:03;;;;;;;4.95;3.05;;;;;;;20.46;64.44;101422.56;5035271;28;20419;-53
2022/06/29 00:47:33;;;;;;;7.25;2.90;;;;;;;20.45;64.39;101420.00;5035625;28;20088;-55
2022/06/29 00:50:04;;;;;;;5.03;3.08;;;;;;;20.45;64.47;101420.00;5035413;28;20049;-51
2022/06/29 00:52:40;;;;;;;3.95;2.47;;;;;;;20.45;64.36;101426.13;5034884;28;20053;-53
2022/06/29 00:55:11;;;;;;;9.18;3.35;;;;;;;20.44;64.44;101426.19;5035073;28;20493;-52
2022/06/29 00:57:46;;;;;;;6.40;3.08;;;;;;;20.43;64.48;101427.97;5034911;28;20411;-52
2022/06/29 01:00:14;;;;;;;5.57;3.10;;;;;;;20.42;64.50;101425.38;5034951;28;20540;-54
2022/06/29 01:02:44;;;;;;;6.43;3.33;;;;;;;20.41;64.50;101423.66;5033642;28;20296;-52
2022/06/29 01:05:13;;;;;;;5.78;3.65;;;;;;;20.40;64.58;101416.69;5034789;28;20049;-53
2022/06/29 01:07:44;;;;;;;5.78;3.35;;;;;;;20.39;64.49;101414.94;5033364;28;20067;-53
2022/06/29 01:10:14;;;;;;;6.00;3.17;;;;;;;20.37;64.38;101425.53;5034873;28;20363;-53
2022/06/29 01:12:51;;;;;;;7.28;3.30;;;;;;;20.35;64.58;101426.50;5034829;28;20057;-54
2022/06/29 01:15:19;;;;;;;5.10;3.50;;;;;;;20.33;64.66;101415.19;5015269;28;20137;-54
2022/06/29 01:17:49;;;;;;;7.45;3.25;;;;;;;20.33;64.55;101412.53;5015246;28;20120;-52
2022/06/29 01:20:19;;;;;;;5.13;2.88;;;;;;;20.32;64.70;101424.00;5015032;28;20076;-54
2022/06/29 01:22:51;;;;;;;6.95;3.50;;;;;;;20.30;64.70;101416.16;5015067;28;20054;-51
2022/06/29 01:25:21;;;;;;;6.38;3.08;;;;;;;20.29;64.87;101413.53;5014112;28;20049;-55
2022/06/29 01:27:50;;;;;;;6.40;3.25;;;;;;;20.28;64.80;101401.28;5014979;28;20050;-55
2022/06/29 01:30:19;;;;;;;8.05;3.45;;;;;;;20.25;64.98;101399.63;5031134;28;20525;-52
2022/06/29 01:32:47;;;;;;;7.28;3.55;;;;;;;20.25;64.92;101396.16;5035946;28;20068;-53
2022/06/29 01:35:22;;;;;;;7.10;3.58;;;;;;;20.22;64.86;101391.84;5034373;28;20140;-54
2022/06/29 01:38:04;;;;;;;5.88;3.80;;;;;;;20.20;64.92;101392.84;5034349;28;20088;-53
2022/06/29 01:40:31;;;;;;;7.57;3.58;;;;;;;20.17;65.07;101389.41;5034272;28;20049;-52
2022/06/29 01:42:59;;;;;;;10.23;4.38;;;;;;;20.17;64.98;101399.94;5034382;28;20071;-53
2022/06/29 01:45:29;;;;;;;6.70;3.90;;;;;;;20.17;64.98;101404.34;5034099;28;20462;-54
2022/06/29 01:50:44;;;;;;;5.75;3.22;;;;;;;20.13;64.99;101385.16;5033588;28;20455;-54
2022/06/29 01:53:14;;;;;;;8.18;3.35;;;;;;;20.11;65.13;101376.47;5033206;28;20383;-54
2022/06/29 01:55:42;;;;;;;6.82;4.10;;;;;;;20.11;65.04;101379.09;5033886;28;20466;-53
2022/06/29 01:58:12;;;;;;;8.20;4.15;;;;;;;20.09;65.04;101374.81;5033856;28;20046;-55
2022/06/29 02:00:43;;;;;;;5.90;3.92;;;;;;;20.07;65.02;101366.97;5033693;28;20053;-51
2022/06/29 02:03:13;;;;;;;9.18;3.95;;;;;;;20.06;65.08;101375.78;5033742;28;20049;-52
2022/06/29 02:05:46;;;;;;;5.57;3.38;;;;;;;20.05;65.19;101368.81;5033304;28;20049;-52
2022/06/29 02:08:30;;;;;;;5.55;3.20;;;;;;;20.05;65.03;101360.06;5033300;28;20100;-51
2022/06/29 02:10:59;;;;;;;6.82;3.63;;;;;;;20.02;65.18;101352.28;5033814;28;20050;-51
2022/06/29 02:13:28;;;;;;;6.13;3.40;;;;;;;20.01;65.14;101351.44;5034026;28;20137;-53
2022/06/29 02:15:58;;;;;;;5.38;3.55;;;;;;;20.00;65.39;101352.34;5033327;28;20068;-51
2022/06/29 02:18:34;;;;;;;9.32;4.00;;;;;;;19.99;65.28;101358.53;5034078;28;20391;-52
2022/06/29 02:21:03;;;;;;;5.35;3.80;;;;;;;19.97;65.42;101373.50;5033775;28;20049;-55
2022/06/29 02:23:45;;;;;;;8.18;4.10;;;;;;;19.95;65.31;101367.44;5033969;28;20077;-52
2022/06/29 02:26:12;;;;;;;6.47;3.92;;;;;;;19.90;65.41;101358.88;5033722;28;20083;-52
2022/06/29 02:28:41;;;;;;;8.73;4.50;;;;;;;19.89;65.48;101351.91;5033507;28;20573;-53
2022/06/29 02:36:42;;;;;;;10.93;5.97;;;;;;;19.78;65.68;101348.81;5033306;28;20063;-52
2022/06/29 02:39:24;;;;;;;7.80;5.20;;;;;;;19.79;65.64;101351.38;5033639;28;20077;-54
2022/06/29 02:41:51;;;;;;;6.38;4.85;;;;;;;19.76;65.83;101345.34;5033827;28;20045;-52
2022/06/29 02:44:20;;;;;;;10.55;5.07;;;;;;;19.76;65.82;101346.19;5033602;28;20053;-51
2022/06/29 02:46:51;;;;;;;9.85;4.68;;;;;;;19.73;65.80;101345.44;5032879;28;20534;-52
2022/06/29 02:49:21;;;;;;;6.53;4.50;;;;;;;19.69;65.75;101347.34;5033463;28;20053;-52
2022/06/29 02:51:51;;;;;;;10.00;4.57;;;;;;;19.68;65.86;101347.41;5032903;28;20362;-55
2022/06/29 02:54:24;;;;;;;8.77;4.78;;;;;;;19.69;65.80;101349.09;5033453;28;20060;-55
2022/06/29 02:56:52;;;;;;;8.52;4.40;;;;;;;19.70;65.94;101358.72;5033272;28;20054;-52
2022/06/29 02:59:28;;;;;;;10.90;5.13;;;;;;;19.73;66.07;101355.97;5033187;28;20081;-51
2022/06/29 03:01:57;;;;;;;8.55;4.80;;;;;;;19.77;66.00;101344.44;5033232;28;20044;-53
2022/06/29 03:04:25;;;;;;;7.28;4.25;;;;;;;19.79;65.92;101346.13;5033329;28;20060;-53
2022/06/29 03:06:53;;;;;;;7.97;4.40;;;;;;;19.85;65.99;101339.75;5033372;28;20064;-54
2022/06/29 03:09:32;;;;;;;10.35;4.53;;;;;;;19.92;66.04;101341.25;5032179;28;20067;-52
2022/06/29 03:12:13;;;;;;;9.77;5.28;;;;;;;19.96;66.00;101337.59;5033108;28;20057;-54
2022/06/29 03:14:42;;;;;;;7.72;4.35;;;;;;;20.01;66.14;101335.63;5033024;28;20146;-54
2022/06/29 03:17:12;;;;;;;8.65;4.65;;;;;;;20.08;65.79;101342.38;5033161;28;20053;-55
2022/06/29 03:19:40;;;;;;;7.63;4.50;;;;;;;20.17;65.68;101328.88;5032989;28;20065;-54
2022/06/29 03:24:51;;;;;;;10.15;5.00;;;;;;;20.39;65.50;101326.31;5032829;28;20057;-53
2022/06/29 03:27:19;;;;;;;12.52;4.88;;;;;;;20.51;65.18;101319.69;5032731;28;20060;-52
2022/06/29 03:29:47;;;;;;;10.82;5.35;;;;;;;20.62;64.92;101321.88;5032718;28;20073;-52
2022/06/29 03:32:15;;;;;;;7.85;4.47;;;;;;;20.71;64.88;101324.13;5032900;28;20042;-52
2022/06/29 03:34:42;;;;;;;5.38;3.65;;;;;;;20.79;64.58;101329.94;5027143;28;20477;-52
2022/06/29 03:37:11;;;;;;;10.98;4.82;;;;;;;20.89;64.42;101341.00;5031409;28;20050;-52
2022/06/29 03:39:38;;;;;;;8.00;3.75;;;;;;;21.00;64.21;101331.69;5032906;28;20053;-52
2022/06/29 03:42:16;;;;;;;6.80;3.65;;;;;;;21.15;63.96;101337.25;5032602;28;20054;-52
2022/06/29 03:44:44;;;;;;;8.90;3.67;;;;;;;21.26;63.66;101343.78;5032466;28;20517;-51
2022/06/29 03:47:14;;;;;;;5.68;3.22;;;;;;;21.37;63.47;101352.13;5033033;28;20470;-55
2022/06/29 03:49:44;;;;;;;6.93;3.92;;;;;;;21.50;62.99;101355.09;5036729;28;20080;-54
2022/06/29 03:52:12;;;;;;;5.03;3.22;;;;;;;21.65;62.58;101348.25;5036326;28;20060;-55
2022/06/29 03:54:41;;;;;;;4.07;2.78;;;;;;;21.79;62.25;101356.41;5036866;28;20061;-51
2022/06/29 03:57:13;;;;;;;4.10;2.92;;;;;;;21.96;61.71;101363.59;5036742;28;20057;-52
2022/06/29 03:59:44;;;;;;;3.40;2.85;;;;;;;22.12;61.41;101364.63;5036250;28;20592;-52
2022/06/29 04:02:15;;;;;;;6.82;2.50;;;;;;;22.29;60.96;101359.41;5036317;28;20084;-52
2022/06/29 04:04:43;;;;;;;7.03;3.35;;;;;;;22.48;60.40;101367.34;5036645;28;20080;-52
2022/06/29 04:07:11;;;;;;;4.95;3.42;;;;;;;22.67;59.84;101368.16;5036172;28;20381;-51
2022/06/29 04:09:39;;;;;;;6.90;2.70;;;;;;;22.86;59.24;101361.97;5036029;28;20053;-53
2022/06/29 04:12:07;;;;;;;5.22;2.92;;;;;;;23.04;58.85;101355.81;5036185;28;20041;-53
2022/06/29 04:14:41;;;;;;;10.48;3.00;;;;;;;23.26;58.17;101350.25;5036336;28;20378;-51
2022/06/29 04:17:11;;;;;;;2.70;2.03;;;;;;;23.46;57.50;101346.63;5036092;28;20081;-55
2022/06/29 04:19:41;;;;;;;12.88;3.13;;;;;;;23.67;57.04;101356.09;5036414;28;20045;-54
2022/06/29 04:22:09;;;;;;;5.28;2.83;;;;;;;23.91;56.29;101353.91;5035769;28;20077;-52
2022/06/29 04:24:38;;;;;;;9.18;2.90;;;;;;;24.13;55.71;101348.31;5036303;28;20045;-52
2022/06/29 04:27:07;;;;;;;7.57;3.33;;;;;;;24.32;55.28;101341.09;5036051;28;20049;-55
2022/06/29 04:29:37;;;;;;;9.55;2.58;;;;;;;24.47;54.62;101348.19;5036188;28;20107;-52
2022/06/29 04:32:05;;;;;;;3.95;2.60;;;;;;;24.56;54.29;101341.50;5035947;28;20045;-52
2022/06/29 04:34:41;;;;;;;5.20;2.90;;;;;;;24.59;53.81;101335.19;5036109;28;20045;-52
2022/06/29 04:37:09;;;;;;;5.05;2.85;;;;;;;24.56;53.91;101340.66;5035596;28;20057;-53
2022/06/29 04:42:16;;;;;;;7.28;2.90;;;;;;;24.34;54.18;101336.56;5029629;28;20100;-52
2022/06/29 04:44:57;;;;;;;5.38;2.90;;;;;;;24.21;54.07;101330.19;5034285;28;20058;-54
2022/06/29 04:47:28;;;;;;;10.98;3.22;;;;;;;24.06;54.71;101331.06;5034726;28;20056;-52
2022/06/29 04:49:56;;;;;;;6.72;3.55;;;;;;;23.92;55.01;101335.28;5035923;28;20053;-51
2022/06/29 04:52:24;;;;;;;4.55;2.70;;;;;;;23.78;55.42;101332.53;5034395;28;20049;-52
2022/06/29 04:54:55;;;;;;;5.20;3.45;;;;;;;23.63;55.76;101328.06;5035418;28;20057;-52
2022/06/29 04:57:24;;;;;;;4.97;3.00;;;;;;;23.54;56.00;101323.25;5035521;28;20081;-55
2022/06/29 05:00:08;;;;;;;7.07;3.90;;;;;;;23.45;56.06;101318.44;5034224;28;20053;-54
2022/06/29 05:02:38;;;;;;;6.10;3.00;;;;;;;23.36;56.68;101319.75;5034439;28;20366;-52
2022/06/29 05:05:08;;;;;;;5.60;3.05;;;;;;;23.33;56.57;101311.97;5035195;28;20459;-55
2022/06/29 05:07:38;;;;;;;14.15;3.40;;;;;;;23.30;56.97;101313.00;5034902;28;20497;-55
2022/06/29 05:10:15;;;;;;;8.20;2.75;;;;;;;23.32;56.73;101309.41;5035497;28;20056;-55
2022/06/29 05:12:46;;;;;;;5.57;3.03;;;;;;;23.51;56.49;101312.81;5034895;28;20545;-52
2022/06/29 05:15:27;;;;;;;5.47;2.75;;;;;;;23.70;55.96;101313.56;5035040;28;20061;-54
2022/06/29 05:17:57;;;;;;;5.07;3.15;;;;;;;23.82;55.70;101307.59;5035023;28;20060;-52
2022/06/29 05:20:25;;;;;;;5.93;2.83;;;;;;;23.95;55.15;101323.72;5034975;28;20049;-55
2022/06/29 05:22:53;;;;;;;9.43;4.10;;;;;;;24.01;55.20;101323.38;5034902;28;20041;-54
2022/06/29 05:25:31;;;;;;;5.90;3.38;;;;;;;24.08;55.26;101323.88;5033279;28;20064;-55
2022/06/29 05:28:01;;;;;;;5.47;2.33;;;;;;;24.15;54.98;101333.19;5035019;28;20061;-52
2022/06/29 05:30:34;;;;;;;6.05;2.55;;;;;;;24.18;54.86;101328.56;5034912;28;20057;-52
2022/06/29 05:33:01;;;;;;;7.43;2.47;;;;;;;24.20;54.87;101323.19;5034714;28;20088;-52
2022/06/29 05:35:33;;;;;;;6.70;2.60;;;;;;;24.22;54.79;101326.63;5034852;28;20057;-55
2022/06/29 05:38:02;;;;;;;8.65;2.63;;;;;;;24.23;54.55;101334.47;5034019;28;20148;-53
2022/06/29 05:40:39;;;;;;;6.85;2.53;;;;;;;24.20;54.71;101333.78;5034642;28;20146;-54
2022/06/29 05:43:10;;;;;;;4.35;2.50;;;;;;;24.22;54.60;101331.91;5034515;28;20073;-52
2022/06/29 05:45:51;;;;;;;3.17;1.90;;;;;;;24.24;54.07;101325.59;5033711;28;20053;-53
2022/06/29 05:48:19;;;;;;;3.17;1.98;;;;;;;24.27;54.40;101324.59;5034397;28;20045;-52
2022/06/29 05:50:50;;;;;;;5.53;2.47;;;;;;;24.36;54.25;101318.78;5033650;28;20050;-51
2022/06/29 05:53:17;;;;;;;4.60;2.45;;;;;;;24.40;54.02;101304.41;5034390;28;20077;-52
2022/06/29 05:55:48;;;;;;;6.03;2.00;;;;;;;24.49;53.78;101314.50;5034570;28;20060;-53
2022/06/29 05:58:19;;;;;;;4.00;2.05;;;;;;;24.61;53.51;101317.38;5033573;28;20466;-53
2022/06/29 06:00:47;;;;;;;4.45;2.10;;;;;;;24.79;53.32;101313.66;5034286;28;20120;-52
2022/06/29 06:03:14;;;;;;;5.15;2.33;;;;;;;24.93;52.83;101319.00;5029417;28;20057;-52
2022/06/29 06:05:42;;;;;;;3.08;1.63;;;;;;;25.06;52.43;101325.34;5026853;28;20421;-50
2022/06/29 06:08:18;;;;;;;3.90;1.88;;;;;;;25.16;52.25;101315.88;5033589;28;20103;-50
2022/06/29 06:10:52;;;;;;;3.25;2.03;;;;;;;25.22;51.87;101311.16;5033046;28;20049;-51
2022/06/29 06:13:29;;;;;;;5.57;1.98;;;;;;;25.25;52.04;101314.47;5032399;28;20124;-49
2022/06/29 06:15:59;;;;;;;4.97;2.20;;;;;;;25.28;51.64;101324.06;5000829;28;20049;-50
2022/06/29 06:18:27;;;;;;;4.93;1.80;;;;;;;25.28;51.83;101324.06;5009501;28;20328;-51
2022/06/29 06:20:55;;;;;;;8.68;2.42;;;;;;;25.27;51.85;101322.34;5011385;28;20050;-54
2022/06/29 06:23:23;;;;;;;9.90;2.17;;;;;;;25.28;51.74;101318.75;5017267;28;20061;-51
2022/06/29 06:25:50;;;;;;;9.32;2.42;;;;;;;25.25;51.96;101321.59;5014292;28;20053;-52
2022/06/29 06:28:18;;;;;;;9.65;2.40;;;;;;;25.21;52.04;101318.25;5032761;28;20726;-51
2022/06/29 06:30:47;;;;;;;5.28;2.30;;;;;;;25.14;52.08;101316.94;5032938;28;20417;-51
2022/06/29 06:33:18;;;;;;;9.10;1.80;;;;;;;25.08;52.04;101315.50;5032933;28;20048;-51
2022/06/29 06:35:48;;;;;;;5.63;2.63;;;;;;;25.05;52.16;101321.00;5030779;28;20538;-53
2022/06/29 06:38:19;;;;;;;3.88;1.95;;;;;;;25.02;52.35;101323.81;5033643;28;20056;-51
2022/06/29 06:43:34;;;;;;;5.88;2.28;;;;;;;24.98;52.66;101322.31;5029231;28;20199;-51
2022/06/29 06:46:05;;;;;;;6.15;2.03;;;;;;;24.98;52.50;101319.66;5032732;28;20076;-52
2022/06/29 06:48:36;;;;;;;4.72;2.13;;;;;;;25.05;52.27;101322.78;5032891;28;20152;-51
2022/06/29 06:51:06;;;;;;;4.18;2.00;;;;;;;25.25;52.23;101318.94;5031865;28;20084;-50
2022/06/29 06:53:38;;;;;;;6.97;2.30;;;;;;;25.58;51.37;101318.69;5032448;28;20056;-52
2022/06/29 06:56:11;;;;;;;3.45;1.83;;;;;;;25.83;51.07;101315.38;5030528;28;20080;-50
2022/06/29 06:58:39;;;;;;;3.75;1.85;;;;;;;26.15;50.39;101311.56;5031450;28;20533;-53
2022/06/29 07:01:09;;;;;;;4.72;2.13;;;;;;;26.50;49.60;101303.09;5029289;28;20407;-51
2022/06/29 07:03:44;;;;;;;4.35;2.13;;;;;;;26.83;49.13;101306.19;5026206;28;20064;-51
2022/06/29 07:06:12;;;;;;;3.20;2.05;;;;;;;27.22;47.72;101310.66;5039242;28;20060;-50
2022/06/29 07:08:41;;;;;;;4.22;2.20;;;;;;;27.57;47.69;101310.84;5039092;28;20080;-50
2022/06/29 07:11:11;;;;;;;4.97;2.33;;;;;;;27.91;46.28;101297.84;5035530;28;20056;-52
2022/06/29 07:13:37;;;;;;;9.27;2.30;;;;;;;28.11;45.88;101299.91;5031546;28;20041;-51
2022/06/29 07:16:09;;;;;;;3.75;1.90;;;;;;;28.41;45.45;101296.84;5030744;28;20144;-52
2022/06/29 07:18:40;;;;;;;6.50;2.45;;;;;;;28.59;44.88;101295.44;5032436;28;20053;-53
2022/06/29 07:21:10;;;;;;;2.85;2.35;;;;;;;28.70;44.07;101302.66;5035204;28;20135;-52
2022/06/29 07:26:22;;;;;;;2.30;1.90;;;;;;;28.68;43.81;101311.75;5042110;28;20090;-51
2022/06/29 07:28:52;;;;;;;6.80;2.90;;;;;;;28.52;43.77;101317.38;5040411;28;20084;-52
2022/06/29 07:31:19;;;;;;;10.77;2.63;;;;;;;28.38;44.04;101304.22;5036297;28;20127;-55
2022/06/29 07:33:52;;;;;;;3.10;2.00;;;;;;;28.25;44.29;101307.78;5036638;28;20073;-55
2022/06/29 07:36:23;;;;;;;4.22;1.90;;;;;;;28.17;44.49;101307.47;5040519;28;20099;-55
2022/06/29 07:38:50;;;;;;;4.82;1.95;;;;;;;28.05;44.59;101302.16;5041916;28;20049;-53
2022/06/29 07:41:17;;;;;;;6.13;2.47;;;;;;;27.88;44.54;101303.38;5035735;28;20053;-50
2022/06/29 07:43:46;;;;;;;3.58;2.28;;;;;;;27.79;44.37;101320.03;5041161;28;20052;-53
2022/06/29 07:46:16;;;;;;;2.88;2.17;;;;;;;27.68;44.58;101312.81;5040448;28;20056;-50
2022/06/29 07:48:44;;;;;;;2.63;1.90;;;;;;;27.57;44.69;101312.66;5035870;28;20118;-51
2022/06/29 07:51:30;;;;;;;3.05;2.10;;;;;;;27.52;44.11;101309.47;5038394;28;20126;-55
2022/06/29 07:54:00;;;;;;;3.83;2.42;;;;;;;27.46;44.41;101308.09;5024817;28;20059;-54
2022/06/29 07:56:30;;;;;;;4.90;1.98;;;;;;;27.43;44.61;101297.66;5031881;28;20056;-57
2022/06/29 07:59:00;;;;;;;2.97;2.00;;;;;;;27.50;44.64;101304.25;5037465;28;20049;-51
2022/06/29 08:01:28;;;;;;;3.45;1.80;;;;;;;27.56;44.48;101298.47;5035753;28;20068;-57
2022/06/29 08:03:57;;;;;;;7.20;3.42;;;;;;;27.70;44.00;101299.38;5034529;28;20044;-56
2022/06/29 08:06:30;;;;;;;4.65;2.10;;;;;;;27.92;44.05;101294.19;5033900;28;20045;-53
2022/06/29 08:08:58;;;;;;;2.40;1.85;;;;;;;28.21;43.46;101295.63;5035538;28;20067;-56
2022/06/29 08:11:29;;;;;;;67.35;8.15;;;;;;;28.56;43.06;101284.16;5035750;28;20124;-56
2022/06/29 08:13:57;;;;;;;2.85;1.90;;;;;;;28.74;42.42;101285.47;5036224;28;20045;-56
2022/06/29 08:16:25;;;;;;;3.72;1.85;;;;;;;28.83;42.08;101298.09;5026912;28;20049;-56
2022/06/29 08:18:55;;;;;;;23.30;3.92;;;;;;;28.92;41.71;101290.38;5036427;28;20068;-56
2022/06/29 08:21:36;;;;;;;4.97;1.98;;;;;;;29.17;41.26;101293.75;5036150;28;20133;-56
2022/06/29 08:24:05;;;;;;;3.67;1.92;;;;;;;29.44;40.99;101287.22;5032371;28;20422;-56
2022/06/29 08:26:36;;;;;;;5.00;1.92;;;;;;;29.69;40.11;101275.47;5028458;28;20053;-55
2022/06/29 08:29:04;;;;;;;16.63;2.70;;;;;;;29.93;39.99;101278.81;5035985;28;20385;-55
2022/06/29 08:31:35;;;;;;;26.60;3.00;;;;;;;30.18;39.10;101275.03;5039878;28;20613;-56
2022/06/29 08:34:10;;;;;;;5.00;1.77;;;;;;;30.39;38.57;101269.75;5031260;28;20136;-55
2022/06/29 08:36:38;;;;;;;10.80;2.40;;;;;;;30.63;38.08;101273.06;5031562;28;20386;-56
2022/06/29 08:39:22;;;;;;;4.28;1.73;;;;;;;30.85;36.84;101268.59;5037420;28;20053;-54
2022/06/29 08:41:53;;;;;;;65.70;7.43;;;;;;;31.02;37.80;101273.34;5021472;28;20076;-56
2022/06/29 08:44:23;;;;;;;4.50;1.90;;;;;;;31.32;36.66;101265.38;5034746;28;20604;-55
2022/06/29 08:47:03;;;;;;;70.78;6.78;;;;;;;31.60;36.73;101277.19;5033971;28;20049;-56
2022/06/29 08:49:36;;;;;;;4.70;2.15;;;;;;;31.88;35.99;101270.25;5034637;28;20141;-56
2022/06/29 09:14:06;;;;;;;19.20;3.08;;;;;;;32.24;33.86;101284.88;5011762;28;20068;-54
2022/06/29 09:17:00;;;;;;;2.45;1.80;;;;;;;31.83;34.34;101285.91;5037045;28;20118;-52
2022/06/29 09:19:30;;;;;;;2.05;1.85;;;;;;;31.54;35.95;101287.59;5035487;28;20136;-52
2022/06/29 09:22:03;;;;;;;4.40;2.40;;;;;;;31.34;36.27;101290.19;5035070;28;20571;-53
2022/06/29 09:24:39;;;;;;;5.07;2.17;;;;;;;31.07;36.88;101288.03;5041592;28;20045;-51
2022/06/29 09:27:14;;;;;;;3.83;2.22;;;;;;;30.73;37.25;101290.06;5039078;28;20041;-50
2022/06/29 09:29:44;;;;;;;4.40;2.10;;;;;;;30.42;37.86;101290.88;5049453;28;20522;-55
2022/06/29 09:32:28;;;;;;;4.13;2.40;;;;;;;30.23;37.81;101291.56;5034811;28;20498;-53
2022/06/29 09:34:58;;;;;;;20.75;4.00;;;;;;;29.96;38.35;101286.59;5030528;28;20055;-55
2022/06/29 09:37:26;;;;;;;20.85;4.05;;;;;;;29.71;39.06;101294.91;5033871;28;20049;-56
2022/06/29 09:40:07;;;;;;;6.78;2.97;;;;;;;29.44;39.73;101288.09;5028867;28;20076;-53
2022/06/29 09:42:35;;;;;;;8.63;2.95;;;;;;;29.24;40.26;101287.91;5033243;28;20045;-54
2022/06/29 09:47:53;;;;;;;7.78;2.33;;;;;;;29.02;40.56;101286.03;5034533;28;20689;-55
2022/06/29 09:50:23;;;;;;;4.90;2.63;;;;;;;29.01;40.78;101281.69;5033983;28;20401;-53
2022/06/29 09:52:54;;;;;;;4.78;2.53;;;;;;;29.02;40.88;101286.03;5034215;28;20382;-53
2022/06/29 09:55:30;;;;;;;9.18;2.95;;;;;;;29.01;40.84;101279.00;5033138;28;20132;-58
2022/06/29 09:58:07;;;;;;;5.97;2.83;;;;;;;29.03;40.71;101283.25;5044872;28;20455;-57
2022/06/29 10:03:30;;;;;;;6.75;3.20;;;;;;;29.02;41.00;101286.03;5035110;28;20186;-57
2022/06/29 10:06:08;;;;;;;8.75;3.22;;;;;;;28.77;41.41;101290.56;5031109;28;20458;-57
2022/06/29 10:08:47;;;;;;;6.90;3.00;;;;;;;28.48;42.28;101286.56;5033918;28;20056;-57
2022/06/29 10:14:20;;;;;;;4.03;3.00;;;;;;;28.06;42.96;101299.38;5032538;28;20673;-56
2022/06/29 10:16:55;;;;;;;7.57;3.28;;;;;;;27.85;43.34;101303.59;5033112;28;20096;-57
2022/06/29 10:19:48;;;;;;;10.65;3.22;;;;;;;27.72;43.55;101298.31;5034134;28;20061;-57
2022/06/29 10:22:18;;;;;;;4.25;2.95;;;;;;;27.58;43.89;101301.06;5034851;28;20055;-57
2022/06/29 10:25:09;;;;;;;9.43;3.45;;;;;;;27.60;44.10;101294.66;5025997;28;20107;-55
2022/06/29 10:27:38;;;;;;;7.40;2.60;;;;;;;27.65;44.40;101287.25;5030447;28;20057;-58
2022/06/29 10:30:25;;;;;;;4.30;2.85;;;;;;;27.83;44.99;101286.88;5031944;28;20076;-58
2022/06/29 10:33:02;;;;;;;9.77;3.15;;;;;;;27.91;44.65;101287.16;5030708;28;20058;-56
2022/06/29 10:35:56;;;;;;;6.18;3.58;;;;;;;28.04;44.55;101293.31;5029920;28;20053;-55
2022/06/29 10:38:24;;;;;;;6.47;2.80;;;;;;;28.00;44.89;101296.31;5030016;28;20124;-54
2022/06/29 10:43:07;;;;;;;8.18;3.30;;;;;;;28.08;45.01;101299.25;5026764;28;20323;-55
2022/06/29 10:43:57;;;;;;;5.97;3.60;;;;;;;28.12;44.78;101300.78;5027873;28;20069;-55
2022/06/29 10:46:26;;;;;;;15.82;3.83;;;;;;;28.14;44.77;101299.69;5031560;28;20049;-52
2022/06/29 10:49:27;;;;;;;111.95;13.70;;;;;;;28.01;44.67;101292.69;5031627;28;20059;-53
2022/06/29 10:52:01;;;;;;;7.28;2.80;;;;;;;27.94;45.24;101292.28;4962797;28;20097;-51
2022/06/29 10:57:23;;;;;;;35.35;4.97;;;;;;;27.81;45.62;101297.66;5031772;28;20053;-53
2022/06/29 11:00:05;;;;;;;198.60;16.70;;;;;;;27.68;45.38;101290.66;5033200;28;20080;-51
2022/06/29 11:02:33;;;;;;;93.03;10.60;;;;;;;27.56;45.92;101287.84;5033623;28;20137;-51
2022/06/29 11:05:25;;;;;;;12.98;3.97;;;;;;;27.52;45.91;101286.34;5034424;28;20049;-55
2022/06/29 11:13:44;;;;;;;12.48;3.83;;;;;;;27.46;45.93;101292.09;5021245;28;20091;-55
2022/06/29 11:16:13;;;;;;;8.07;2.95;;;;;;;27.44;46.38;101294.03;5031793;28;20132;-51
2022/06/29 11:18:43;;;;;;;63.40;8.65;;;;;;;27.39;46.98;101289.97;5031842;28;20136;-51
2022/06/29 11:21:15;;;;;;;10.00;3.30;;;;;;;27.40;47.15;101291.69;5033267;28;20136;-53
2022/06/29 11:23:57;;;;;;;6.80;3.35;;;;;;;27.39;47.19;101282.84;5033458;28;20084;-51
2022/06/29 11:26:27;;;;;;;9.95;3.10;;;;;;;27.43;47.19;101287.00;5034039;28;20057;-50
2022/06/29 11:28:58;;;;;;;8.52;3.63;;;;;;;27.45;47.08;101290.41;5032897;28;20072;-51
2022/06/29 11:31:27;;;;;;;6.20;2.90;;;;;;;27.36;47.26;101280.41;5035692;28;20111;-51
2022/06/29 11:34:04;;;;;;;9.00;3.33;;;;;;;27.24;47.66;101286.59;5038018;28;20052;-53
2022/06/29 11:36:35;;;;;;;14.48;3.83;;;;;;;27.20;47.71;101274.47;5032887;28;20076;-55
2022/06/29 11:39:21;;;;;;;17.85;3.58;;;;;;;27.15;47.33;101282.75;5032585;28;20049;-53
2022/06/29 11:44:38;;;;;;;5.40;2.90;;;;;;;26.99;47.97;101288.25;5033243;28;20103;-50
2022/06/29 11:47:12;;;;;;;55.55;8.20;;;;;;;26.99;47.82;101271.44;5032228;28;20076;-55
2022/06/29 11:49:42;;;;;;;16.75;3.15;;;;;;;26.95;47.84;101280.56;5017252;28;20046;-53
2022/06/29 11:55:13;;;;;;;27.40;3.90;;;;;;;26.89;47.49;101259.69;5032924;28;20081;-51
2022/06/29 11:58:01;;;;;;;11.57;2.70;;;;;;;26.89;47.90;101268.53;5033566;28;20140;-53
2022/06/29 12:00:32;;;;;;;10.93;2.63;;;;;;;26.95;48.19;101265.44;5033217;28;20053;-52
2022/06/29 12:03:08;;;;;;;8.73;3.08;;;;;;;26.99;48.38;101266.97;5032736;28;20478;-54
2022/06/29 12:05:37;;;;;;;59.00;4.40;;;;;;;26.95;48.16;101260.13;5033351;28;20056;-51
2022/06/29 12:08:06;;;;;;;13.35;4.05;;;;;;;26.95;48.30;101249.50;5033338;28;20051;-53
2022/06/29 12:10:50;;;;;;;10.85;3.15;;;;;;;26.95;48.17;101252.16;5035604;28;20061;-54
2022/06/29 12:13:23;;;;;;;7.75;2.72;;;;;;;26.99;48.46;101244.84;5033812;28;20080;-52
2022/06/29 12:15:51;;;;;;;5.32;2.42;;;;;;;27.03;48.59;101249.00;5034879;28;20077;-51
2022/06/29 12:18:20;;;;;;;4.15;2.22;;;;;;;27.03;48.48;101252.50;5035514;28;20045;-54
2022/06/29 12:20:49;;;;;;;6.80;2.70;;;;;;;26.99;49.04;101245.69;5036207;28;20136;-51
2022/06/29 12:23:20;;;;;;;437.27;43.03;;;;;;;26.93;49.20;101242.56;5036196;28;20049;-54
2022/06/29 12:26:10;;;;;;;500.88;52.13;;;;;;;26.78;49.06;101247.13;5036040;28;20042;-51
2022/06/29 12:28:40;;;;;;;9.35;3.20;;;;;;;26.68;49.91;101243.41;5035705;28;20054;-53
2022/06/29 12:31:07;;;;;;;14.77;3.33;;;;;;;26.62;50.33;101231.38;5035449;28;20089;-55
2022/06/29 12:33:34;;;;;;;13.52;3.55;;;;;;;26.59;50.41;101236.06;5028999;28;20129;-51
2022/06/29 12:36:07;;;;;;;9.73;2.80;;;;;;;26.41;51.03;101243.44;5035992;28;20049;-51
2022/06/29 12:38:38;;;;;;;37.45;4.72;;;;;;;26.27;51.37;101225.72;5036170;28;20070;-55
2022/06/29 12:41:10;;;;;;;8.45;3.40;;;;;;;26.32;51.02;101236.88;5036519;28;20137;-55
2022/06/29 12:43:41;;;;;;;7.00;2.72;;;;;;;26.35;51.42;101243.84;5033074;28;20892;-52
2022/06/29 12:46:09;;;;;;;28.58;4.05;;;;;;;26.35;51.39;101239.38;5035761;28;20458;-55
2022/06/29 12:48:38;;;;;;;39.78;4.60;;;;;;;26.40;51.56;101242.56;5035117;28;20057;-54
2022/06/29 12:51:09;;;;;;;7.38;3.25;;;;;;;26.41;50.95;101238.97;5035407;28;20080;-55